SAME/MDZ METAR and TAF weather

Enter ICAO airport designator
Station Type Date Time Source
SAME METAR 2020/01/29 13:00 UTC NOAA

SAME 291300Z 14010KT 9999 SCT040 FEW045 21/11 Q1016


Station Type Date Time Source
SAME Decoded METAR 2020/01/29 13:00 UTC NOAA

Mendoza Aerodrome, Argentina (SAME) 32-50S 068-47W 704M
Jan 29, 2020 - 08:00 AM EST / 2020.01.29 1300 UTC
Wind: from the SE (140 degrees) at 12 MPH (10 KT):0
Visibility: greater than 7 mile(s):0
Sky conditions: partly cloudy
Temperature: 69 F (21 C)
Dew Point: 51 F (11 C)
Relative Humidity: 52%
Pressure (altimeter): 30.00 in. Hg (1016 hPa)
ob: SAME 291300Z 14010KT 9999 SCT040 FEW045 21/11 Q1016
cycle: 13

Station Type Date Time Source
SAME TAF 2020/01/29 12:03 UTC NOAA

TAF TAF SAME 291100Z 2912/3012 14010KT 9999 VCTS BKN030 FEW040CB TX27/2920Z TN19/3010Z
BECMG 2913/2915 09010KT 9999 NSW SCT040 SCT090
BECMG 2923/3001 05005KT 9999 VCTS SCT040 FEW050CB

Example: see airport list